sensor_id;sensor_type;location;lat;lon;timestamp;temperature;humidity
4520;DHT22;2272;49.226;8.108;2023-08-31T00:01:32;11.50;99.90
4520;DHT22;2272;49.226;8.108;2023-08-31T00:03:59;11.60;99.90
4520;DHT22;2272;49.226;8.108;2023-08-31T00:06:26;11.60;99.90
4520;DHT22;2272;49.226;8.108;2023-08-31T00:08:53;11.60;99.90
4520;DHT22;2272;49.226;8.108;2023-08-31T00:11:21;11.60;99.90
4520;DHT22;2272;49.226;8.108;2023-08-31T00:13:47;11.70;99.90
4520;DHT22;2272;49.226;8.108;2023-08-31T00:16:14;11.80;99.90
4520;DHT22;2272;49.226;8.108;2023-08-31T00:18:41;11.80;99.90
4520;DHT22;2272;49.226;8.108;2023-08-31T00:21:09;11.80;99.90
4520;DHT22;2272;49.226;8.108;2023-08-31T00:35:59;11.90;99.90
4520;DHT22;2272;49.226;8.108;2023-08-31T00:40:54;11.90;99.90
4520;DHT22;2272;49.226;8.108;2023-08-31T00:43:21;11.80;99.90
4520;DHT22;2272;49.226;8.108;2023-08-31T00:45:51;11.80;99.90
4520;DHT22;2272;49.226;8.108;2023-08-31T00:48:19;12.00;99.90
4520;DHT22;2272;49.226;8.108;2023-08-31T00:50:47;11.90;99.90
4520;DHT22;2272;49.226;8.108;2023-08-31T00:53:15;11.80;99.90
4520;DHT22;2272;49.226;8.108;2023-08-31T00:55:44;11.70;99.90
4520;DHT22;2272;49.226;8.108;2023-08-31T00:58:11;12.60;99.90
4520;DHT22;2272;49.226;8.108;2023-08-31T01:00:45;11.90;99.90
4520;DHT22;2272;49.226;8.108;2023-08-31T01:03:19;11.90;99.90
4520;DHT22;2272;49.226;8.108;2023-08-31T01:05:54;11.90;99.90
4520;DHT22;2272;49.226;8.108;2023-08-31T01:08:31;12.10;99.90
4520;DHT22;2272;49.226;8.108;2023-08-31T01:11:12;12.20;99.90
4520;DHT22;2272;49.226;8.108;2023-08-31T01:13:45;12.00;99.90
4520;DHT22;2272;49.226;8.108;2023-08-31T01:16:19;12.00;99.90
4520;DHT22;2272;49.226;8.108;2023-08-31T01:18:51;12.00;99.90
4520;DHT22;2272;49.226;8.108;2023-08-31T01:21:24;11.90;99.90
4520;DHT22;2272;49.226;8.108;2023-08-31T01:23:54;11.90;99.90
4520;DHT22;2272;49.226;8.108;2023-08-31T01:26:22;11.90;99.90
4520;DHT22;2272;49.226;8.108;2023-08-31T01:28:50;12.00;99.90
4520;DHT22;2272;49.226;8.108;2023-08-31T01:31:17;12.00;99.90
4520;DHT22;2272;49.226;8.108;2023-08-31T01:33:44;11.80;99.90
4520;DHT22;2272;49.226;8.108;2023-08-31T01:38:42;11.70;99.90
4520;DHT22;2272;49.226;8.108;2023-08-31T01:41:14;11.70;99.90
4520;DHT22;2272;49.226;8.108;2023-08-31T01:43:43;11.70;99.90
4520;DHT22;2272;49.226;8.108;2023-08-31T01:46:11;11.70;99.90
4520;DHT22;2272;49.226;8.108;2023-08-31T01:48:38;11.70;99.90
4520;DHT22;2272;49.226;8.108;2023-08-31T01:51:06;11.80;99.90
4520;DHT22;2272;49.226;8.108;2023-08-31T01:53:34;11.80;99.90
4520;DHT22;2272;49.226;8.108;2023-08-31T01:56:01;11.70;99.90
4520;DHT22;2272;49.226;8.108;2023-08-31T01:58:29;11.70;99.90
4520;DHT22;2272;49.226;8.108;2023-08-31T02:00:56;11.70;99.90
4520;DHT22;2272;49.226;8.108;2023-08-31T02:03:23;11.70;99.90
4520;DHT22;2272;49.226;8.108;2023-08-31T02:05:49;11.60;99.90
4520;DHT22;2272;49.226;8.108;2023-08-31T02:08:16;11.60;99.90
4520;DHT22;2272;49.226;8.108;2023-08-31T02:10:43;11.60;99.90
4520;DHT22;2272;49.226;8.108;2023-08-31T02:13:10;11.60;99.90
4520;DHT22;2272;49.226;8.108;2023-08-31T02:15:39;11.60;99.90
4520;DHT22;2272;49.226;8.108;2023-08-31T02:18:07;11.60;99.90
4520;DHT22;2272;49.226;8.108;2023-08-31T02:20:34;11.60;99.90
4520;DHT22;2272;49.226;8.108;2023-08-31T02:23:01;11.60;99.90
4520;DHT22;2272;49.226;8.108;2023-08-31T02:25:27;11.60;99.90
4520;DHT22;2272;49.226;8.108;2023-08-31T02:27:54;11.60;99.90
4520;DHT22;2272;49.226;8.108;2023-08-31T02:30:21;11.50;99.90
4520;DHT22;2272;49.226;8.108;2023-08-31T02:32:49;11.50;99.90
4520;DHT22;2272;49.226;8.108;2023-08-31T02:35:16;11.40;99.90
4520;DHT22;2272;49.226;8.108;2023-08-31T02:37:43;11.70;99.90
4520;DHT22;2272;49.226;8.108;2023-08-31T02:40:11;11.40;99.90
4520;DHT22;2272;49.226;8.108;2023-08-31T02:42:38;11.20;99.90
4520;DHT22;2272;49.226;8.108;2023-08-31T02:45:06;11.30;99.90
4520;DHT22;2272;49.226;8.108;2023-08-31T02:50:01;11.30;99.90
4520;DHT22;2272;49.226;8.108;2023-08-31T02:52:28;11.30;99.90
4520;DHT22;2272;49.226;8.108;2023-08-31T02:54:54;11.30;99.90
4520;DHT22;2272;49.226;8.108;2023-08-31T02:57:21;11.30;99.90
4520;DHT22;2272;49.226;8.108;2023-08-31T02:59:50;11.30;99.90
4520;DHT22;2272;49.226;8.108;2023-08-31T03:02:16;11.30;99.90
4520;DHT22;2272;49.226;8.108;2023-08-31T03:04:43;11.30;99.90
4520;DHT22;2272;49.226;8.108;2023-08-31T03:07:11;11.30;99.90
4520;DHT22;2272;49.226;8.108;2023-08-31T03:09:40;11.30;99.90
4520;DHT22;2272;49.226;8.108;2023-08-31T03:12:07;11.30;99.90
4520;DHT22;2272;49.226;8.108;2023-08-31T03:14:34;11.50;99.90
4520;DHT22;2272;49.226;8.108;2023-08-31T03:17:01;11.30;99.90
4520;DHT22;2272;49.226;8.108;2023-08-31T03:19:28;11.30;99.90
4520;DHT22;2272;49.226;8.108;2023-08-31T03:21:55;11.40;99.90
4520;DHT22;2272;49.226;8.108;2023-08-31T03:24:23;11.40;99.90
4520;DHT22;2272;49.226;8.108;2023-08-31T03:26:50;11.40;99.90
4520;DHT22;2272;49.226;8.108;2023-08-31T03:29:17;11.30;99.90
4520;DHT22;2272;49.226;8.108;2023-08-31T03:31:43;11.40;99.90
4520;DHT22;2272;49.226;8.108;2023-08-31T03:34:10;11.40;99.90
4520;DHT22;2272;49.226;8.108;2023-08-31T03:36:37;11.40;99.90
4520;DHT22;2272;49.226;8.108;2023-08-31T03:39:04;11.40;99.90
4520;DHT22;2272;49.226;8.108;2023-08-31T03:41:32;11.40;99.90
4520;DHT22;2272;49.226;8.108;2023-08-31T03:44:01;11.40;99.90
4520;DHT22;2272;49.226;8.108;2023-08-31T03:46:27;11.40;99.90
4520;DHT22;2272;49.226;8.108;2023-08-31T03:48:54;11.40;99.90
4520;DHT22;2272;49.226;8.108;2023-08-31T03:51:21;11.40;99.90
4520;DHT22;2272;49.226;8.108;2023-08-31T03:53:48;11.40;99.90
4520;DHT22;2272;49.226;8.108;2023-08-31T03:56:14;11.40;99.90
4520;DHT22;2272;49.226;8.108;2023-08-31T03:58:43;11.40;99.90
4520;DHT22;2272;49.226;8.108;2023-08-31T04:01:09;11.40;99.90
4520;DHT22;2272;49.226;8.108;2023-08-31T04:03:36;11.40;99.90
4520;DHT22;2272;49.226;8.108;2023-08-31T04:06:03;11.30;99.90
4520;DHT22;2272;49.226;8.108;2023-08-31T04:08:31;11.40;99.90
4520;DHT22;2272;49.226;8.108;2023-08-31T04:10:57;11.40;99.90
4520;DHT22;2272;49.226;8.108;2023-08-31T04:13:24;11.50;99.90
4520;DHT22;2272;49.226;8.108;2023-08-31T04:15:53;11.60;99.90
4520;DHT22;2272;49.226;8.108;2023-08-31T04:18:20;11.50;99.90
4520;DHT22;2272;49.226;8.108;2023-08-31T04:20:49;11.50;99.90
4520;DHT22;2272;49.226;8.108;2023-08-31T04:23:17;11.50;99.90
4520;DHT22;2272;49.226;8.108;2023-08-31T04:25:44;11.50;99.90
4520;DHT22;2272;49.226;8.108;2023-08-31T04:28:11;11.40;99.90
4520;DHT22;2272;49.226;8.108;2023-08-31T04:30:39;11.40;99.90
4520;DHT22;2272;49.226;8.108;2023-08-31T04:33:07;11.30;99.90
4520;DHT22;2272;49.226;8.108;2023-08-31T04:35:34;11.30;99.90
4520;DHT22;2272;49.226;8.108;2023-08-31T04:38:01;11.20;99.90
4520;DHT22;2272;49.226;8.108;2023-08-31T04:40:28;11.30;99.90
4520;DHT22;2272;49.226;8.108;2023-08-31T04:42:55;11.20;99.90
4520;DHT22;2272;49.226;8.108;2023-08-31T04:45:30;11.10;99.90
4520;DHT22;2272;49.226;8.108;2023-08-31T04:47:57;11.10;99.90
4520;DHT22;2272;49.226;8.108;2023-08-31T04:50:25;11.10;99.90
4520;DHT22;2272;49.226;8.108;2023-08-31T04:52:52;11.10;99.90
4520;DHT22;2272;49.226;8.108;2023-08-31T04:55:21;11.10;99.90
4520;DHT22;2272;49.226;8.108;2023-08-31T04:57:48;11.10;99.90
4520;DHT22;2272;49.226;8.108;2023-08-31T05:00:16;11.10;99.90
4520;DHT22;2272;49.226;8.108;2023-08-31T05:02:42;11.10;99.90
4520;DHT22;2272;49.226;8.108;2023-08-31T05:05:10;11.10;99.90
4520;DHT22;2272;49.226;8.108;2023-08-31T05:07:38;11.10;99.90
4520;DHT22;2272;49.226;8.108;2023-08-31T05:10:06;11.10;99.90
4520;DHT22;2272;49.226;8.108;2023-08-31T05:12:33;11.10;99.90
4520;DHT22;2272;49.226;8.108;2023-08-31T05:15:00;11.00;99.90
4520;DHT22;2272;49.226;8.108;2023-08-31T05:17:28;11.00;99.90
4520;DHT22;2272;49.226;8.108;2023-08-31T05:19:55;11.00;99.90
4520;DHT22;2272;49.226;8.108;2023-08-31T05:22:22;11.00;99.90
4520;DHT22;2272;49.226;8.108;2023-08-31T05:24:50;10.90;99.90
4520;DHT22;2272;49.226;8.108;2023-08-31T05:27:17;10.90;99.90
4520;DHT22;2272;49.226;8.108;2023-08-31T05:29:44;11.00;99.90
4520;DHT22;2272;49.226;8.108;2023-08-31T05:32:11;11.00;99.90
4520;DHT22;2272;49.226;8.108;2023-08-31T05:34:37;11.00;99.90
4520;DHT22;2272;49.226;8.108;2023-08-31T05:37:05;11.00;99.90
4520;DHT22;2272;49.226;8.108;2023-08-31T05:39:31;11.10;99.90
4520;DHT22;2272;49.226;8.108;2023-08-31T05:42:00;11.10;99.90
4520;DHT22;2272;49.226;8.108;2023-08-31T05:44:26;11.20;99.90
4520;DHT22;2272;49.226;8.108;2023-08-31T05:46:53;11.30;99.90
4520;DHT22;2272;49.226;8.108;2023-08-31T05:49:20;11.30;99.90
4520;DHT22;2272;49.226;8.108;2023-08-31T05:51:47;11.40;99.90
4520;DHT22;2272;49.226;8.108;2023-08-31T05:54:14;11.40;99.90
4520;DHT22;2272;49.226;8.108;2023-08-31T05:56:41;11.50;99.90
4520;DHT22;2272;49.226;8.108;2023-08-31T05:59:09;11.60;99.90
4520;DHT22;2272;49.226;8.108;2023-08-31T06:01:36;11.60;99.90
4520;DHT22;2272;49.226;8.108;2023-08-31T06:04:03;11.70;99.90
4520;DHT22;2272;49.226;8.108;2023-08-31T06:06:30;11.70;99.90
4520;DHT22;2272;49.226;8.108;2023-08-31T06:08:58;11.80;99.90
4520;DHT22;2272;49.226;8.108;2023-08-31T06:11:25;11.90;99.90
4520;DHT22;2272;49.226;8.108;2023-08-31T06:13:51;12.00;99.90
4520;DHT22;2272;49.226;8.108;2023-08-31T06:16:20;12.10;99.90
4520;DHT22;2272;49.226;8.108;2023-08-31T06:18:46;12.30;99.90
4520;DHT22;2272;49.226;8.108;2023-08-31T06:21:13;12.40;99.90
4520;DHT22;2272;49.226;8.108;2023-08-31T06:23:40;12.50;99.90
4520;DHT22;2272;49.226;8.108;2023-08-31T06:26:07;12.60;99.90
4520;DHT22;2272;49.226;8.108;2023-08-31T06:28:33;12.80;99.90
4520;DHT22;2272;49.226;8.108;2023-08-31T06:31:00;12.90;99.90
4520;DHT22;2272;49.226;8.108;2023-08-31T06:33:29;13.00;99.90
4520;DHT22;2272;49.226;8.108;2023-08-31T06:35:55;13.10;99.90
4520;DHT22;2272;49.226;8.108;2023-08-31T06:38:22;13.10;99.90
4520;DHT22;2272;49.226;8.108;2023-08-31T06:40:49;13.20;99.90
4520;DHT22;2272;49.226;8.108;2023-08-31T06:43:16;13.30;99.90
4520;DHT22;2272;49.226;8.108;2023-08-31T06:45:43;13.50;99.90
4520;DHT22;2272;49.226;8.108;2023-08-31T06:48:09;13.60;99.90
4520;DHT22;2272;49.226;8.108;2023-08-31T06:50:38;13.70;99.90
4520;DHT22;2272;49.226;8.108;2023-08-31T06:53:05;13.80;99.90
4520;DHT22;2272;49.226;8.108;2023-08-31T06:55:32;13.90;99.90
4520;DHT22;2272;49.226;8.108;2023-08-31T06:57:59;14.00;99.90
4520;DHT22;2272;49.226;8.108;2023-08-31T07:00:26;13.90;99.90
4520;DHT22;2272;49.226;8.108;2023-08-31T07:02:53;14.30;99.90
4520;DHT22;2272;49.226;8.108;2023-08-31T07:05:20;14.40;99.90
4520;DHT22;2272;49.226;8.108;2023-08-31T07:07:53;14.50;99.90
4520;DHT22;2272;49.226;8.108;2023-08-31T07:10:20;14.60;99.90
4520;DHT22;2272;49.226;8.108;2023-08-31T07:12:47;14.70;99.90
4520;DHT22;2272;49.226;8.108;2023-08-31T07:15:14;14.80;99.90
4520;DHT22;2272;49.226;8.108;2023-08-31T07:17:41;14.80;99.90
4520;DHT22;2272;49.226;8.108;2023-08-31T07:20:08;14.90;99.90
4520;DHT22;2272;49.226;8.108;2023-08-31T07:22:36;14.90;99.90
4520;DHT22;2272;49.226;8.108;2023-08-31T07:25:06;14.90;99.90
4520;DHT22;2272;49.226;8.108;2023-08-31T07:27:33;14.90;99.90
4520;DHT22;2272;49.226;8.108;2023-08-31T07:29:59;14.90;99.90
4520;DHT22;2272;49.226;8.108;2023-08-31T07:32:26;14.90;99.90
4520;DHT22;2272;49.226;8.108;2023-08-31T07:34:54;15.00;99.90
4520;DHT22;2272;49.226;8.108;2023-08-31T07:37:21;15.00;99.90
4520;DHT22;2272;49.226;8.108;2023-08-31T07:39:48;15.10;99.90
4520;DHT22;2272;49.226;8.108;2023-08-31T07:42:16;15.10;99.90
4520;DHT22;2272;49.226;8.108;2023-08-31T07:44:43;15.00;99.90
4520;DHT22;2272;49.226;8.108;2023-08-31T07:47:09;15.20;99.90
4520;DHT22;2272;49.226;8.108;2023-08-31T07:49:36;15.30;99.90
4520;DHT22;2272;49.226;8.108;2023-08-31T07:52:03;15.40;99.90
4520;DHT22;2272;49.226;8.108;2023-08-31T07:54:30;15.50;99.90
4520;DHT22;2272;49.226;8.108;2023-08-31T07:56:57;15.60;99.90
4520;DHT22;2272;49.226;8.108;2023-08-31T07:59:25;15.70;99.90
4520;DHT22;2272;49.226;8.108;2023-08-31T08:01:52;15.80;99.90
4520;DHT22;2272;49.226;8.108;2023-08-31T08:04:19;15.90;99.90
4520;DHT22;2272;49.226;8.108;2023-08-31T08:06:46;16.10;99.90
4520;DHT22;2272;49.226;8.108;2023-08-31T08:09:12;16.30;99.90
4520;DHT22;2272;49.226;8.108;2023-08-31T08:11:39;16.30;99.90
4520;DHT22;2272;49.226;8.108;2023-08-31T08:14:07;16.40;99.90
4520;DHT22;2272;49.226;8.108;2023-08-31T08:16:35;16.40;99.90
4520;DHT22;2272;49.226;8.108;2023-08-31T08:19:02;16.60;99.90
4520;DHT22;2272;49.226;8.108;2023-08-31T08:21:29;16.70;99.90
4520;DHT22;2272;49.226;8.108;2023-08-31T08:23:56;16.80;99.90
4520;DHT22;2272;49.226;8.108;2023-08-31T08:26:22;16.90;99.90
4520;DHT22;2272;49.226;8.108;2023-08-31T08:28:50;16.90;99.90
4520;DHT22;2272;49.226;8.108;2023-08-31T08:31:16;17.00;99.90
4520;DHT22;2272;49.226;8.108;2023-08-31T08:36:13;17.00;99.90
4520;DHT22;2272;49.226;8.108;2023-08-31T08:38:41;17.10;99.90
4520;DHT22;2272;49.226;8.108;2023-08-31T08:41:08;17.30;99.90
4520;DHT22;2272;49.226;8.108;2023-08-31T08:43:37;17.30;99.90
4520;DHT22;2272;49.226;8.108;2023-08-31T08:46:06;17.10;99.90
4520;DHT22;2272;49.226;8.108;2023-08-31T08:48:34;17.00;99.90
4520;DHT22;2272;49.226;8.108;2023-08-31T08:51:04;17.20;99.90
4520;DHT22;2272;49.226;8.108;2023-08-31T08:53:33;16.50;99.90
4520;DHT22;2272;49.226;8.108;2023-08-31T09:00:55;17.90;99.90
4520;DHT22;2272;49.226;8.108;2023-08-31T09:03:23;18.30;99.90
4520;DHT22;2272;49.226;8.108;2023-08-31T09:10:55;19.20;99.90
4520;DHT22;2272;49.226;8.108;2023-08-31T09:13:26;19.60;99.90
4520;DHT22;2272;49.226;8.108;2023-08-31T09:30:44;19.20;99.90
4520;DHT22;2272;49.226;8.108;2023-08-31T09:33:14;19.00;99.90
4520;DHT22;2272;49.226;8.108;2023-08-31T09:35:57;18.90;99.90
4520;DHT22;2272;49.226;8.108;2023-08-31T09:38:31;18.90;99.90
4520;DHT22;2272;49.226;8.108;2023-08-31T09:41:04;18.70;99.90
4520;DHT22;2272;49.226;8.108;2023-08-31T09:43:32;18.60;99.90
4520;DHT22;2272;49.226;8.108;2023-08-31T09:45:59;18.60;99.90
4520;DHT22;2272;49.226;8.108;2023-08-31T09:48:26;18.70;99.90
4520;DHT22;2272;49.226;8.108;2023-08-31T09:50:55;18.90;99.90
4520;DHT22;2272;49.226;8.108;2023-08-31T09:53:24;19.10;99.90
4520;DHT22;2272;49.226;8.108;2023-08-31T09:55:54;19.40;99.90
4520;DHT22;2272;49.226;8.108;2023-08-31T09:58:23;19.50;99.90
4520;DHT22;2272;49.226;8.108;2023-08-31T10:00:52;19.90;99.90
4520;DHT22;2272;49.226;8.108;2023-08-31T10:03:20;20.30;99.90
4520;DHT22;2272;49.226;8.108;2023-08-31T10:05:48;20.50;99.90
4520;DHT22;2272;49.226;8.108;2023-08-31T10:08:16;20.80;99.90
4520;DHT22;2272;49.226;8.108;2023-08-31T10:10:43;21.10;99.90
4520;DHT22;2272;49.226;8.108;2023-08-31T10:13:12;21.20;99.90
4520;DHT22;2272;49.226;8.108;2023-08-31T10:15:41;21.00;99.90
4520;DHT22;2272;49.226;8.108;2023-08-31T10:18:10;20.70;99.90
4520;DHT22;2272;49.226;8.108;2023-08-31T10:20:38;20.50;99.90
4520;DHT22;2272;49.226;8.108;2023-08-31T10:23:08;20.30;99.90
4520;DHT22;2272;49.226;8.108;2023-08-31T10:25:59;20.40;99.90
4520;DHT22;2272;49.226;8.108;2023-08-31T10:28:27;20.60;99.90
4520;DHT22;2272;49.226;8.108;2023-08-31T10:31:01;21.00;99.90
4520;DHT22;2272;49.226;8.108;2023-08-31T10:33:31;21.60;99.90
4520;DHT22;2272;49.226;8.108;2023-08-31T10:35:58;23.00;99.90
4520;DHT22;2272;49.226;8.108;2023-08-31T10:38:27;22.50;99.90
4520;DHT22;2272;49.226;8.108;2023-08-31T10:41:03;22.40;99.90
4520;DHT22;2272;49.226;8.108;2023-08-31T10:43:46;21.90;99.90
4520;DHT22;2272;49.226;8.108;2023-08-31T10:49:01;20.70;99.90
4520;DHT22;2272;49.226;8.108;2023-08-31T10:51:40;20.30;99.90
4520;DHT22;2272;49.226;8.108;2023-08-31T10:54:09;19.70;99.90
4520;DHT22;2272;49.226;8.108;2023-08-31T10:57:01;19.80;99.90
4520;DHT22;2272;49.226;8.108;2023-08-31T10:59:43;19.60;99.90
4520;DHT22;2272;49.226;8.108;2023-08-31T11:02:10;19.70;99.90
4520;DHT22;2272;49.226;8.108;2023-08-31T11:04:53;20.00;99.90
4520;DHT22;2272;49.226;8.108;2023-08-31T11:07:24;20.50;99.90
4520;DHT22;2272;49.226;8.108;2023-08-31T11:09:51;20.80;99.90
4520;DHT22;2272;49.226;8.108;2023-08-31T11:12:22;21.00;99.90
4520;DHT22;2272;49.226;8.108;2023-08-31T11:14:50;20.90;99.90
4520;DHT22;2272;49.226;8.108;2023-08-31T11:17:17;20.60;99.90
4520;DHT22;2272;49.226;8.108;2023-08-31T11:19:44;20.50;99.90
4520;DHT22;2272;49.226;8.108;2023-08-31T11:22:13;20.50;99.90
4520;DHT22;2272;49.226;8.108;2023-08-31T11:24:40;20.80;99.90
4520;DHT22;2272;49.226;8.108;2023-08-31T11:27:08;21.30;99.90
4520;DHT22;2272;49.226;8.108;2023-08-31T11:29:37;21.70;99.90
4520;DHT22;2272;49.226;8.108;2023-08-31T11:32:06;22.20;99.90
4520;DHT22;2272;49.226;8.108;2023-08-31T11:34:33;22.80;99.90
4520;DHT22;2272;49.226;8.108;2023-08-31T11:37:03;23.70;99.90
4520;DHT22;2272;49.226;8.108;2023-08-31T11:39:32;22.80;99.90
4520;DHT22;2272;49.226;8.108;2023-08-31T11:42:26;22.60;99.90
4520;DHT22;2272;49.226;8.108;2023-08-31T11:44:53;23.00;99.90
4520;DHT22;2272;49.226;8.108;2023-08-31T11:47:22;23.20;99.90
4520;DHT22;2272;49.226;8.108;2023-08-31T11:49:49;23.70;99.90
4520;DHT22;2272;49.226;8.108;2023-08-31T11:52:17;24.30;99.90
4520;DHT22;2272;49.226;8.108;2023-08-31T11:54:44;24.40;99.90
4520;DHT22;2272;49.226;8.108;2023-08-31T11:57:11;24.30;99.90
4520;DHT22;2272;49.226;8.108;2023-08-31T11:59:40;23.80;99.90
4520;DHT22;2272;49.226;8.108;2023-08-31T12:02:13;23.80;99.90
4520;DHT22;2272;49.226;8.108;2023-08-31T12:04:44;23.70;99.90
4520;DHT22;2272;49.226;8.108;2023-08-31T12:07:11;23.80;99.90
4520;DHT22;2272;49.226;8.108;2023-08-31T12:09:38;23.60;99.90
4520;DHT22;2272;49.226;8.108;2023-08-31T12:12:11;23.20;99.90
4520;DHT22;2272;49.226;8.108;2023-08-31T12:14:38;22.80;99.90
4520;DHT22;2272;49.226;8.108;2023-08-31T12:17:06;22.40;99.90
4520;DHT22;2272;49.226;8.108;2023-08-31T12:19:36;22.20;99.90
4520;DHT22;2272;49.226;8.108;2023-08-31T12:22:05;22.10;99.90
4520;DHT22;2272;49.226;8.108;2023-08-31T12:24:38;22.10;99.90
4520;DHT22;2272;49.226;8.108;2023-08-31T12:27:06;22.10;99.90
4520;DHT22;2272;49.226;8.108;2023-08-31T12:29:32;22.20;99.90
4520;DHT22;2272;49.226;8.108;2023-08-31T12:31:59;22.20;99.90
4520;DHT22;2272;49.226;8.108;2023-08-31T12:34:26;22.20;99.90
4520;DHT22;2272;49.226;8.108;2023-08-31T12:37:02;22.00;99.90
4520;DHT22;2272;49.226;8.108;2023-08-31T12:39:31;21.20;99.90
4520;DHT22;2272;49.226;8.108;2023-08-31T12:41:59;21.30;99.90
4520;DHT22;2272;49.226;8.108;2023-08-31T12:44:26;21.10;99.90
4520;DHT22;2272;49.226;8.108;2023-08-31T12:46:55;21.10;99.90
4520;DHT22;2272;49.226;8.108;2023-08-31T12:49:22;21.10;99.90
4520;DHT22;2272;49.226;8.108;2023-08-31T12:51:50;21.00;99.90
4520;DHT22;2272;49.226;8.108;2023-08-31T12:54:19;20.90;99.90
4520;DHT22;2272;49.226;8.108;2023-08-31T12:56:47;20.80;99.90
4520;DHT22;2272;49.226;8.108;2023-08-31T12:59:14;20.60;99.90
4520;DHT22;2272;49.226;8.108;2023-08-31T13:01:41;20.70;99.90
4520;DHT22;2272;49.226;8.108;2023-08-31T13:04:08;20.80;99.90
4520;DHT22;2272;49.226;8.108;2023-08-31T13:06:37;21.00;99.90
4520;DHT22;2272;49.226;8.108;2023-08-31T13:09:04;21.00;99.90
4520;DHT22;2272;49.226;8.108;2023-08-31T13:11:34;21.20;99.90
4520;DHT22;2272;49.226;8.108;2023-08-31T13:14:02;21.60;99.90
4520;DHT22;2272;49.226;8.108;2023-08-31T13:16:29;21.80;99.90
4520;DHT22;2272;49.226;8.108;2023-08-31T13:18:56;22.00;99.90
4520;DHT22;2272;49.226;8.108;2023-08-31T13:21:23;22.30;99.90
4520;DHT22;2272;49.226;8.108;2023-08-31T13:23:50;22.60;99.90
4520;DHT22;2272;49.226;8.108;2023-08-31T13:26:17;22.70;99.90
4520;DHT22;2272;49.226;8.108;2023-08-31T13:28:43;22.70;99.90
4520;DHT22;2272;49.226;8.108;2023-08-31T13:31:11;22.70;99.90
4520;DHT22;2272;49.226;8.108;2023-08-31T13:33:38;22.90;99.90
4520;DHT22;2272;49.226;8.108;2023-08-31T13:36:05;23.10;99.90
4520;DHT22;2272;49.226;8.108;2023-08-31T13:38:33;22.80;99.90
4520;DHT22;2272;49.226;8.108;2023-08-31T13:41:00;22.40;99.90
4520;DHT22;2272;49.226;8.108;2023-08-31T13:43:29;21.90;99.90
4520;DHT22;2272;49.226;8.108;2023-08-31T13:45:59;21.30;99.90
4520;DHT22;2272;49.226;8.108;2023-08-31T13:48:28;20.80;99.90
4520;DHT22;2272;49.226;8.108;2023-08-31T13:50:55;20.30;99.90
4520;DHT22;2272;49.226;8.108;2023-08-31T13:53:21;19.70;99.90
4520;DHT22;2272;49.226;8.108;2023-08-31T13:55:51;19.20;99.90
4520;DHT22;2272;49.226;8.108;2023-08-31T13:58:27;18.70;99.90
4520;DHT22;2272;49.226;8.108;2023-08-31T14:00:54;18.40;99.90
4520;DHT22;2272;49.226;8.108;2023-08-31T14:03:22;18.10;99.90
4520;DHT22;2272;49.226;8.108;2023-08-31T14:05:50;17.90;99.90
4520;DHT22;2272;49.226;8.108;2023-08-31T14:08:18;17.60;99.90
4520;DHT22;2272;49.226;8.108;2023-08-31T14:10:59;17.60;99.90
4520;DHT22;2272;49.226;8.108;2023-08-31T14:13:27;17.70;99.90
4520;DHT22;2272;49.226;8.108;2023-08-31T14:15:53;17.80;99.90
4520;DHT22;2272;49.226;8.108;2023-08-31T14:18:20;18.10;99.90
4520;DHT22;2272;49.226;8.108;2023-08-31T14:20:47;18.40;99.90
4520;DHT22;2272;49.226;8.108;2023-08-31T14:23:29;18.90;99.90
4520;DHT22;2272;49.226;8.108;2023-08-31T14:26:00;19.60;99.90
4520;DHT22;2272;49.226;8.108;2023-08-31T14:28:28;20.10;99.90
4520;DHT22;2272;49.226;8.108;2023-08-31T14:30:55;20.50;99.90
4520;DHT22;2272;49.226;8.108;2023-08-31T14:33:22;20.80;99.90
4520;DHT22;2272;49.226;8.108;2023-08-31T14:35:49;21.10;99.90
4520;DHT22;2272;49.226;8.108;2023-08-31T14:38:20;21.40;99.90
4520;DHT22;2272;49.226;8.108;2023-08-31T14:40:49;21.50;99.90
4520;DHT22;2272;49.226;8.108;2023-08-31T14:43:17;21.40;99.90
4520;DHT22;2272;49.226;8.108;2023-08-31T14:45:49;21.30;99.90
4520;DHT22;2272;49.226;8.108;2023-08-31T14:48:16;21.30;99.90
4520;DHT22;2272;49.226;8.108;2023-08-31T14:50:43;21.20;99.90
4520;DHT22;2272;49.226;8.108;2023-08-31T14:53:10;21.20;99.90
4520;DHT22;2272;49.226;8.108;2023-08-31T14:55:37;21.10;99.90
4520;DHT22;2272;49.226;8.108;2023-08-31T14:58:06;20.90;99.90
4520;DHT22;2272;49.226;8.108;2023-08-31T15:00:34;20.80;99.90
4520;DHT22;2272;49.226;8.108;2023-08-31T15:03:01;20.90;99.90
4520;DHT22;2272;49.226;8.108;2023-08-31T15:05:29;20.90;99.90
4520;DHT22;2272;49.226;8.108;2023-08-31T15:07:56;20.80;99.90
4520;DHT22;2272;49.226;8.108;2023-08-31T15:10:23;20.70;99.90
4520;DHT22;2272;49.226;8.108;2023-08-31T15:12:50;20.80;99.90
4520;DHT22;2272;49.226;8.108;2023-08-31T15:15:22;20.90;99.90
4520;DHT22;2272;49.226;8.108;2023-08-31T15:17:49;21.00;99.90
4520;DHT22;2272;49.226;8.108;2023-08-31T15:20:16;20.90;99.90
4520;DHT22;2272;49.226;8.108;2023-08-31T15:22:43;20.80;99.90
4520;DHT22;2272;49.226;8.108;2023-08-31T15:25:10;20.80;99.90
4520;DHT22;2272;49.226;8.108;2023-08-31T15:27:37;20.80;99.90
4520;DHT22;2272;49.226;8.108;2023-08-31T15:30:06;20.60;99.90
4520;DHT22;2272;49.226;8.108;2023-08-31T15:32:35;20.50;99.90
4520;DHT22;2272;49.226;8.108;2023-08-31T15:35:03;20.30;99.90
4520;DHT22;2272;49.226;8.108;2023-08-31T15:37:31;20.10;99.90
4520;DHT22;2272;49.226;8.108;2023-08-31T15:39:58;19.90;99.90
4520;DHT22;2272;49.226;8.108;2023-08-31T15:42:25;19.60;99.90
4520;DHT22;2272;49.226;8.108;2023-08-31T15:44:52;19.40;99.90
4520;DHT22;2272;49.226;8.108;2023-08-31T15:47:21;19.20;99.90
4520;DHT22;2272;49.226;8.108;2023-08-31T15:49:52;19.10;99.90
4520;DHT22;2272;49.226;8.108;2023-08-31T15:52:21;19.30;99.90
4520;DHT22;2272;49.226;8.108;2023-08-31T15:54:48;19.50;99.90
4520;DHT22;2272;49.226;8.108;2023-08-31T15:57:14;19.70;99.90
4520;DHT22;2272;49.226;8.108;2023-08-31T15:59:41;19.80;99.90
4520;DHT22;2272;49.226;8.108;2023-08-31T16:02:08;19.90;99.90
4520;DHT22;2272;49.226;8.108;2023-08-31T16:04:36;19.90;99.90
4520;DHT22;2272;49.226;8.108;2023-08-31T16:07:04;19.90;99.90
4520;DHT22;2272;49.226;8.108;2023-08-31T16:09:31;19.80;99.90
4520;DHT22;2272;49.226;8.108;2023-08-31T16:11:59;19.70;99.90
4520;DHT22;2272;49.226;8.108;2023-08-31T16:14:26;19.60;99.90
4520;DHT22;2272;49.226;8.108;2023-08-31T16:16:54;19.50;99.90
4520;DHT22;2272;49.226;8.108;2023-08-31T16:19:21;19.30;99.90
4520;DHT22;2272;49.226;8.108;2023-08-31T16:21:48;19.10;99.90
4520;DHT22;2272;49.226;8.108;2023-08-31T16:24:16;18.80;99.90
4520;DHT22;2272;49.226;8.108;2023-08-31T16:26:43;18.60;99.90
4520;DHT22;2272;49.226;8.108;2023-08-31T16:29:13;18.40;99.90
4520;DHT22;2272;49.226;8.108;2023-08-31T16:31:42;18.20;99.90
4520;DHT22;2272;49.226;8.108;2023-08-31T16:34:10;18.00;99.90
4520;DHT22;2272;49.226;8.108;2023-08-31T16:36:36;17.80;99.90
4520;DHT22;2272;49.226;8.108;2023-08-31T16:39:03;17.70;99.90
4520;DHT22;2272;49.226;8.108;2023-08-31T16:41:32;17.50;99.90
4520;DHT22;2272;49.226;8.108;2023-08-31T16:43:59;17.40;99.90
4520;DHT22;2272;49.226;8.108;2023-08-31T16:46:26;17.30;99.90
4520;DHT22;2272;49.226;8.108;2023-08-31T16:48:52;17.20;99.90
4520;DHT22;2272;49.226;8.108;2023-08-31T16:51:19;17.10;99.90
4520;DHT22;2272;49.226;8.108;2023-08-31T16:53:47;17.10;99.90
4520;DHT22;2272;49.226;8.108;2023-08-31T16:56:14;17.10;99.90
4520;DHT22;2272;49.226;8.108;2023-08-31T16:58:44;17.10;99.90